createdAt,value
2022-08-31T00:00:09.784Z,102400.00
2022-08-31T00:02:55.047Z,102390.03
2022-08-31T00:05:23.301Z,102388.53
2022-08-31T00:07:51.770Z,102388.88
2022-08-31T00:10:32.388Z,102395.31
2022-08-31T00:13:03.138Z,102391.59
2022-08-31T00:15:31.199Z,102390.75
2022-08-31T00:17:59.360Z,102387.41
2022-08-31T00:20:33.446Z,102386.56
2022-08-31T00:23:02.881Z,102392.31
2022-08-31T00:25:32.302Z,102378.47
2022-08-31T00:28:00.595Z,102382.53
2022-08-31T00:30:29.494Z,102383.75
2022-08-31T00:32:58.088Z,102389.03
2022-08-31T00:35:27.040Z,102388.72
2022-08-31T00:37:55.072Z,102384.69
2022-08-31T00:40:23.971Z,102396.88
2022-08-31T00:42:53.452Z,102395.22
2022-08-31T00:45:22.013Z,102394.16
2022-08-31T00:47:50.126Z,102402.63
2022-08-31T00:50:18.595Z,102400.94
2022-08-31T00:52:49.949Z,102400.94
2022-08-31T00:55:19.394Z,102411.06
2022-08-31T00:57:49.690Z,102411.28
2022-08-31T01:00:20.686Z,102408.91
2022-08-31T01:02:49.065Z,102415.50
2022-08-31T01:05:17.312Z,102413.47
2022-08-31T01:07:47.667Z,102398.28
2022-08-31T01:10:15.740Z,102406.56
2022-08-31T01:12:43.919Z,102407.94
2022-08-31T01:15:13.567Z,102412.84
2022-08-31T01:17:43.066Z,102414.91
2022-08-31T01:20:15.263Z,102411.69
2022-08-31T01:22:55.683Z,102401.06
2022-08-31T01:25:23.685Z,102402.28
2022-08-31T01:28:04.136Z,102401.78
2022-08-31T01:30:32.521Z,102404.84
2022-08-31T01:33:03.124Z,102409.91
2022-08-31T01:35:31.960Z,102399.44
2022-08-31T01:38:01.390Z,102403.84
2022-08-31T01:40:33.005Z,102413.44
2022-08-31T01:43:01.196Z,102404.53
2022-08-31T01:45:29.424Z,102414.63
2022-08-31T01:47:57.482Z,102403.16
2022-08-31T01:50:26.635Z,102408.09
2022-08-31T01:52:54.707Z,102412.81
2022-08-31T01:55:24.188Z,102404.88
2022-08-31T01:57:52.338Z,102412.31
2022-08-31T02:00:39.092Z,102404.41
2022-08-31T02:03:08.053Z,102415.34
2022-08-31T02:05:38.500Z,102416.38
2022-08-31T02:08:07.752Z,102416.38
2022-08-31T02:10:37.359Z,102415.69
2022-08-31T02:13:05.487Z,102413.84
2022-08-31T02:15:38.316Z,102411.31
2022-08-31T02:18:06.477Z,102412.50
2022-08-31T02:20:34.656Z,102409.31
2022-08-31T02:23:03.498Z,102402.22
2022-08-31T02:25:31.787Z,102410.31
2022-08-31T02:28:03.907Z,102407.63
2022-08-31T02:30:32.184Z,102400.53
2022-08-31T02:33:00.468Z,102398.69
2022-08-31T02:35:28.511Z,102400.38
2022-08-31T02:37:56.885Z,102394.13
2022-08-31T02:40:26.013Z,102400.91
2022-08-31T02:42:54.401Z,102401.91
2022-08-31T02:45:27.168Z,102403.94
2022-08-31T02:48:01.713Z,102405.97
2022-08-31T02:50:35.665Z,102400.59
2022-08-31T02:53:06.216Z,102407.16
2022-08-31T02:55:35.052Z,102399.91
2022-08-31T02:58:03.104Z,102404.63
2022-08-31T03:00:33.053Z,102398.38
2022-08-31T03:03:01.247Z,102406.63
2022-08-31T03:05:29.853Z,102399.91
2022-08-31T03:07:57.942Z,102393.19
2022-08-31T03:10:26.216Z,102391.84
2022-08-31T03:12:54.481Z,102392.19
2022-08-31T03:15:24.881Z,102392.84
2022-08-31T03:17:54.300Z,102383.44
2022-08-31T03:20:25.556Z,102391.16
2022-08-31T03:22:54.691Z,102382.56
2022-08-31T03:25:22.816Z,102391.50
2022-08-31T03:27:53.254Z,102395.34
2022-08-31T03:30:25.497Z,102399.75
2022-08-31T03:33:08.264Z,102395.88
2022-08-31T03:35:36.412Z,102401.59
2022-08-31T03:38:05.468Z,102395.34
2022-08-31T03:40:34.004Z,102396.22
2022-08-31T03:43:03.484Z,102400.28
2022-08-31T03:45:32.139Z,102399.25
2022-08-31T03:48:00.693Z,102397.59
2022-08-31T03:50:30.257Z,102404.00
2022-08-31T03:53:04.227Z,102392.38
2022-08-31T03:55:32.422Z,102390.84
2022-08-31T03:58:01.059Z,102392.84
2022-08-31T04:00:29.256Z,102395.56
2022-08-31T04:03:03.242Z,102388.66
2022-08-31T04:05:34.307Z,102396.03
2022-08-31T04:08:17.741Z,102395.56
2022-08-31T04:10:48.827Z,102386.78
2022-08-31T04:13:28.006Z,102399.25
2022-08-31T04:16:17.899Z,102392.50
2022-08-31T04:18:58.071Z,102400.75
2022-08-31T04:21:30.376Z,102399.25
2022-08-31T04:23:58.626Z,102399.25
2022-08-31T04:26:30.857Z,102403.13
2022-08-31T04:29:01.830Z,102412.19
2022-08-31T04:31:30.201Z,102412.38
2022-08-31T04:34:00.212Z,102424.19
2022-08-31T04:36:29.763Z,102422.50
2022-08-31T04:38:58.843Z,102420.81
2022-08-31T04:41:27.820Z,102426.19
2022-08-31T04:43:57.228Z,102426.50
2022-08-31T04:46:26.440Z,102426.69
2022-08-31T04:48:56.274Z,102425.84
2022-08-31T04:51:25.560Z,102434.94
2022-08-31T04:53:55.201Z,102431.56
2022-08-31T04:56:24.228Z,102436.97
2022-08-31T04:58:55.565Z,102435.44
2022-08-31T05:01:25.655Z,102438.13
2022-08-31T05:04:05.904Z,102434.09
2022-08-31T05:09:06.176Z,102416.56
2022-08-31T05:11:34.289Z,102431.22
2022-08-31T05:14:03.225Z,102424.16
2022-08-31T05:16:31.573Z,102426.84
2022-08-31T05:18:59.844Z,102418.06
2022-08-31T05:21:29.220Z,102424.31
2022-08-31T05:23:57.872Z,102421.78
2022-08-31T05:26:28.338Z,102427.16
2022-08-31T05:28:56.427Z,102427.16
2022-08-31T05:31:26.779Z,102429.34
2022-08-31T05:33:58.033Z,102427.81
2022-08-31T05:36:36.440Z,102429.50
2022-08-31T05:39:09.328Z,102427.81
2022-08-31T05:41:39.101Z,102435.25
2022-08-31T05:44:07.411Z,102436.91
2022-08-31T05:46:37.035Z,102439.59
2022-08-31T05:49:06.551Z,102436.25
2022-08-31T05:54:07.243Z,102436.06
2022-08-31T05:56:35.712Z,102434.91
2022-08-31T05:59:05.541Z,102441.81
2022-08-31T06:01:34.927Z,102437.94
2022-08-31T06:04:12.052Z,102444.16
2022-08-31T06:06:40.177Z,102438.78
2022-08-31T06:09:08.617Z,102439.31
2022-08-31T06:11:42.295Z,102436.25
2022-08-31T06:14:14.921Z,102443.84
2022-08-31T06:16:44.670Z,102438.31
2022-08-31T06:19:15.347Z,102445.03
2022-08-31T06:21:50.422Z,102446.38
2022-08-31T06:24:24.175Z,102444.38
2022-08-31T06:26:59.658Z,102452.28
2022-08-31T06:29:35.143Z,102449.44
2022-08-31T06:32:07.922Z,102449.75
2022-08-31T06:34:38.176Z,102462.91
2022-08-31T06:37:06.503Z,102457.16
2022-08-31T06:39:45.069Z,102463.94
2022-08-31T06:42:36.330Z,102472.22
2022-08-31T06:45:06.100Z,102478.94
2022-08-31T06:47:50.324Z,102471.38
2022-08-31T06:50:22.181Z,102486.34
2022-08-31T06:52:52.148Z,102474.41
2022-08-31T06:55:23.088Z,102480.47
2022-08-31T06:58:09.387Z,102483.50
2022-08-31T07:00:59.302Z,102473.03
2022-08-31T07:03:34.475Z,102488.19
2022-08-31T07:06:06.249Z,102484.81
2022-08-31T07:08:34.385Z,102476.03
2022-08-31T07:11:04.109Z,102484.47
2022-08-31T07:13:32.465Z,102487.50
2022-08-31T07:16:06.505Z,102485.13
2022-08-31T07:18:34.701Z,102496.06
2022-08-31T07:21:11.200Z,102491.16
2022-08-31T07:23:41.882Z,102495.91
2022-08-31T07:26:15.165Z,102490.19
2022-08-31T07:28:44.153Z,102498.59
2022-08-31T07:31:17.566Z,102496.19
2022-08-31T07:33:46.001Z,102493.16
2022-08-31T07:36:15.462Z,102494.84
2022-08-31T07:39:11.999Z,102503.94
2022-08-31T07:42:02.877Z,102493.63
2022-08-31T07:44:33.187Z,102491.09
2022-08-31T07:47:02.801Z,102493.78
2022-08-31T07:49:31.597Z,102494.47
2022-08-31T07:52:19.800Z,102485.34
2022-08-31T07:55:23.881Z,102492.28
2022-08-31T07:58:00.215Z,102484.66
2022-08-31T08:00:29.928Z,102488.66
2022-08-31T08:03:07.746Z,102486.63
2022-08-31T08:05:56.386Z,102486.47
2022-08-31T08:08:43.805Z,102495.28
2022-08-31T08:11:22.939Z,102492.28
2022-08-31T08:14:19.994Z,102489.06
2022-08-31T08:17:07.735Z,102492.78
2022-08-31T08:19:48.991Z,102499.53
2022-08-31T08:22:35.687Z,102500.50
2022-08-31T08:25:26.098Z,102496.44
2022-08-31T08:28:28.959Z,102491.28
2022-08-31T08:31:01.372Z,102492.25
2022-08-31T08:33:32.704Z,102488.50
2022-08-31T08:36:08.113Z,102498.25
2022-08-31T08:38:39.469Z,102500.53
2022-08-31T08:41:11.677Z,102493.03
2022-08-31T08:43:41.681Z,102493.59
2022-08-31T08:46:33.336Z,102497.94
2022-08-31T08:49:07.990Z,102481.28
2022-08-31T08:51:39.697Z,102479.84
2022-08-31T08:54:11.042Z,102482.84
2022-08-31T08:56:49.349Z,102495.44
2022-08-31T08:59:20.810Z,102491.47
2022-08-31T09:01:51.008Z,102483.25
2022-08-31T09:04:51.056Z,102476.34
2022-08-31T09:07:51.160Z,102482.22
2022-08-31T09:10:23.323Z,102476.94
2022-08-31T09:12:53.893Z,102469.56
2022-08-31T09:16:01.013Z,102476.38
2022-08-31T09:18:41.124Z,102469.09
2022-08-31T09:21:22.042Z,102469.38
2022-08-31T09:24:02.024Z,102452.53
2022-08-31T09:26:50.692Z,102470.38
2022-08-31T09:29:35.210Z,102467.53
2022-08-31T09:32:06.522Z,102463.47
2022-08-31T09:34:37.293Z,102472.00
2022-08-31T09:37:16.490Z,102482.97
2022-08-31T09:39:48.756Z,102470.47
2022-08-31T09:42:29.146Z,102474.84
2022-08-31T09:44:59.085Z,102467.44
2022-08-31T09:47:50.104Z,102460.25
2022-08-31T09:50:31.513Z,102474.44
2022-08-31T09:53:30.886Z,102457.28
2022-08-31T09:56:16.314Z,102468.59
2022-08-31T09:58:49.129Z,102454.94
2022-08-31T10:01:20.768Z,102461.28
2022-08-31T10:03:48.948Z,102466.03
2022-08-31T10:06:45.793Z,102465.91
2022-08-31T10:09:28.144Z,102459.50
2022-08-31T10:11:59.565Z,102458.91
2022-08-31T10:14:32.007Z,102472.97
2022-08-31T10:17:02.918Z,102464.59
2022-08-31T10:19:40.227Z,102458.28
2022-08-31T10:22:11.594Z,102462.03
2022-08-31T10:24:46.404Z,102454.47
2022-08-31T10:27:17.524Z,102454.69
2022-08-31T10:29:49.472Z,102453.47
2022-08-31T10:32:24.904Z,102448.09
2022-08-31T10:35:07.357Z,102456.69
2022-08-31T10:37:51.098Z,102454.09
2022-08-31T10:40:21.117Z,102445.81
2022-08-31T10:42:59.462Z,102453.34
2022-08-31T10:45:30.362Z,102445.44
2022-08-31T10:47:58.636Z,102450.91
2022-08-31T10:50:30.064Z,102456.78
2022-08-31T10:53:05.931Z,102456.75
2022-08-31T10:55:37.480Z,102445.81
2022-08-31T10:58:12.886Z,102448.59
2022-08-31T11:00:46.636Z,102450.47
2022-08-31T11:03:18.070Z,102442.72
2022-08-31T11:05:51.034Z,102433.03
2022-08-31T11:08:37.903Z,102432.44
2022-08-31T11:11:09.705Z,102433.31
2022-08-31T11:14:00.527Z,102430.84
2022-08-31T11:16:49.667Z,102429.13
2022-08-31T11:19:38.595Z,102431.00
2022-08-31T11:22:34.788Z,102424.41
2022-08-31T11:25:30.020Z,102426.19
2022-08-31T11:28:00.501Z,102428.81
2022-08-31T11:30:31.770Z,102408.63
2022-08-31T11:33:03.164Z,102429.03
2022-08-31T11:35:57.454Z,102425.25
2022-08-31T11:38:52.632Z,102410.50
2022-08-31T11:41:39.208Z,102411.28
2022-08-31T11:44:07.880Z,102411.31
2022-08-31T11:47:08.644Z,102423.50
2022-08-31T11:49:43.968Z,102413.34
2022-08-31T11:52:43.471Z,102408.41
2022-08-31T11:55:27.561Z,102414.78
2022-08-31T11:58:49.771Z,102404.75
2022-08-31T12:01:43.272Z,102413.03
2022-08-31T12:04:46.226Z,102400.97
2022-08-31T12:07:19.018Z,102409.53
2022-08-31T12:10:17.612Z,102400.44
2022-08-31T12:13:26.723Z,102394.69
2022-08-31T12:16:23.677Z,102390.31
2022-08-31T12:19:35.155Z,102390.66
2022-08-31T12:22:25.999Z,102383.91
2022-08-31T12:24:59.400Z,102387.75
2022-08-31T12:27:32.249Z,102384.53
2022-08-31T12:30:21.203Z,102382.38
2022-08-31T12:32:56.162Z,102378.84
2022-08-31T12:35:29.043Z,102377.91
2022-08-31T12:38:02.768Z,102374.72
2022-08-31T12:40:34.333Z,102373.56
2022-08-31T12:43:06.337Z,102369.38
2022-08-31T12:46:10.272Z,102356.06
2022-08-31T12:48:53.993Z,102367.91
2022-08-31T12:51:29.326Z,102365.34
2022-08-31T12:54:28.430Z,102353.97
2022-08-31T12:56:59.882Z,102365.09
2022-08-31T12:59:59.425Z,102363.16
2022-08-31T13:02:30.468Z,102360.88
2022-08-31T13:04:58.881Z,102359.25
2022-08-31T13:07:30.892Z,102344.53
2022-08-31T13:10:08.994Z,102358.91
2022-08-31T13:12:38.813Z,102350.44
2022-08-31T13:15:14.355Z,102363.78
2022-08-31T13:17:43.864Z,102345.69
2022-08-31T13:20:19.396Z,102346.19
2022-08-31T13:22:59.857Z,102347.25
2022-08-31T13:25:35.931Z,102348.91
2022-08-31T13:28:10.886Z,102349.78
2022-08-31T13:30:55.015Z,102337.91
2022-08-31T13:33:27.322Z,102339.03
2022-08-31T13:36:04.233Z,102333.09
2022-08-31T13:38:45.147Z,102332.97
2022-08-31T13:41:18.944Z,102307.97
2022-08-31T13:43:55.025Z,102328.25
2022-08-31T13:46:43.382Z,102326.56
2022-08-31T13:49:29.827Z,102321.84
2022-08-31T13:52:01.456Z,102315.16
2022-08-31T13:54:33.448Z,102308.59
2022-08-31T13:57:21.975Z,102309.28
2022-08-31T13:59:53.639Z,102304.88
2022-08-31T14:02:37.654Z,102293.50
2022-08-31T14:05:08.760Z,102300.78
2022-08-31T14:07:56.168Z,102284.06
2022-08-31T14:10:26.845Z,102293.06
2022-08-31T14:12:57.046Z,102298.53
2022-08-31T14:15:41.481Z,102282.06
2022-08-31T14:18:26.909Z,102289.16
2022-08-31T14:21:22.674Z,102291.91
2022-08-31T14:23:53.529Z,102279.44
2022-08-31T14:26:29.384Z,102291.53
2022-08-31T14:29:04.653Z,102287.63
2022-08-31T14:31:37.543Z,102281.38
2022-08-31T14:34:26.421Z,102279.78
2022-08-31T14:37:04.199Z,102288.84
2022-08-31T14:39:36.767Z,102270.38
2022-08-31T14:42:12.096Z,102284.16
2022-08-31T14:44:43.288Z,102285.84
2022-08-31T14:47:12.818Z,102278.69
2022-08-31T14:49:45.565Z,102271.47
2022-08-31T14:52:14.513Z,102269.28
2022-08-31T14:54:43.067Z,102282.53
2022-08-31T14:57:13.175Z,102261.28
2022-08-31T14:59:52.296Z,102258.22
2022-08-31T15:02:24.058Z,102266.47
2022-08-31T15:04:52.389Z,102263.13
2022-08-31T15:07:20.582Z,102257.50
2022-08-31T15:09:50.303Z,102258.00
2022-08-31T15:12:22.704Z,102252.69
2022-08-31T15:18:26.171Z,102247.47
2022-08-31T15:21:32.270Z,102233.69
2022-08-31T15:24:15.077Z,102244.44
2022-08-31T15:26:56.119Z,102238.63
2022-08-31T15:30:14.845Z,102226.78
2022-08-31T15:33:29.855Z,102229.28
2022-08-31T15:36:13.068Z,102218.81
2022-08-31T15:38:55.067Z,102221.53
2022-08-31T15:42:06.652Z,102222.00
2022-08-31T15:45:28.780Z,102215.31
2022-08-31T15:48:45.926Z,102220.38
2022-08-31T15:52:04.388Z,102207.66
2022-08-31T15:54:43.246Z,102213.81
2022-08-31T15:57:32.666Z,102219.91
2022-08-31T16:00:48.491Z,102199.44
2022-08-31T16:03:22.050Z,102197.72
2022-08-31T16:06:28.419Z,102202.19
2022-08-31T16:09:51.722Z,102191.69
2022-08-31T16:13:11.261Z,102188.91
2022-08-31T16:16:08.218Z,102184.25
2022-08-31T16:19:34.028Z,102183.47
2022-08-31T16:22:28.254Z,102181.72
2022-08-31T16:25:48.942Z,102168.34
2022-08-31T16:29:18.589Z,102169.22
2022-08-31T16:31:59.357Z,102164.16
